Time;durP1;ratioP1;P1;durP2;ratioP2;P2;SDS_P1;SDS_P2;PMS_P1;PMS_P2;Temp;Humidity;BMP_temperature;BMP_pressure;BME280_temperature;BME280_humidity;BME280_pressure;Samples;Min_cycle;Max_cycle;Signal;HPM_P1;HPM_P2
2022/09/11 00:01:36;;;;;;;38.13;34.43;;;15.70;99.90;;;;;;4977077;28;20865;-78
2022/09/11 00:04:05;;;;;;;36.83;33.30;;;15.70;99.90;;;;;;4978055;28;20431;-78
2022/09/11 00:06:33;;;;;;;38.17;34.27;;;15.70;99.90;;;;;;4976769;28;20841;-79
2022/09/11 00:09:03;;;;;;;36.53;32.97;;;15.70;99.90;;;;;;4976480;28;20419;-79
2022/09/11 00:11:34;;;;;;;35.40;32.20;;;15.70;99.90;;;;;;4975179;28;20501;-79
2022/09/11 00:14:04;;;;;;;35.70;32.37;;;15.70;99.90;;;;;;4975377;28;20428;-79
2022/09/11 00:16:35;;;;;;;36.50;33.00;;;15.70;99.90;;;;;;4976359;28;20416;-79
2022/09/11 00:19:06;;;;;;;34.37;31.33;;;15.60;99.90;;;;;;4974979;28;20475;-78
2022/09/11 00:21:35;;;;;;;33.07;29.87;;;15.60;99.90;;;;;;4976091;28;20431;-79
2022/09/11 00:24:04;;;;;;;35.37;32.00;;;15.60;99.90;;;;;;4974830;28;20451;-78
2022/09/11 00:26:32;;;;;;;33.70;30.70;;;15.60;99.90;;;;;;4974782;28;20428;-78
2022/09/11 00:29:01;;;;;;;35.57;32.37;;;15.50;99.90;;;;;;4974727;28;20428;-78
2022/09/11 00:31:31;;;;;;;33.50;30.33;;;15.50;99.90;;;;;;4974716;28;20488;-78
2022/09/11 00:34:00;;;;;;;34.47;31.47;;;15.50;99.90;;;;;;4974619;28;20442;-78
2022/09/11 00:36:31;;;;;;;33.33;30.43;;;15.50;99.90;;;;;;4974527;28;20470;-78
2022/09/11 00:39:00;;;;;;;31.57;28.77;;;15.50;99.90;;;;;;4974688;28;20844;-78
2022/09/11 00:41:30;;;;;;;31.63;28.87;;;15.50;99.90;;;;;;4976979;28;20528;-78
2022/09/11 00:44:01;;;;;;;31.17;28.43;;;15.50;99.90;;;;;;4978397;28;20921;-78
2022/09/11 00:46:37;;;;;;;31.40;28.57;;;15.50;99.90;;;;;;4978512;28;20486;-78
2022/09/11 00:49:16;;;;;;;31.73;28.93;;;15.50;99.90;;;;;;4978218;28;20468;-78
2022/09/11 00:51:47;;;;;;;31.57;28.67;;;15.50;99.90;;;;;;4978173;28;20439;-78
2022/09/11 00:54:21;;;;;;;30.30;27.70;;;15.40;99.90;;;;;;4981029;28;20429;-78
2022/09/11 00:56:50;;;;;;;29.57;26.97;;;15.40;99.90;;;;;;4981172;28;20400;-78
2022/09/11 00:59:24;;;;;;;31.20;28.37;;;15.40;99.90;;;;;;4979868;28;20478;-78
2022/09/11 01:01:54;;;;;;;30.63;27.80;;;15.40;99.90;;;;;;4979306;28;20576;-78
2022/09/11 01:04:23;;;;;;;33.30;30.37;;;15.40;99.90;;;;;;4979783;28;20911;-78
2022/09/11 01:06:54;;;;;;;31.90;29.20;;;15.40;99.90;;;;;;4979307;28;20449;-78
2022/09/11 01:09:23;;;;;;;31.93;29.03;;;15.30;99.90;;;;;;4979470;28;20445;-78
2022/09/11 01:11:59;;;;;;;34.07;30.77;;;15.30;99.90;;;;;;4979109;28;20471;-78
2022/09/11 01:14:37;;;;;;;30.30;27.70;;;15.30;99.90;;;;;;4980453;28;20811;-78
2022/09/11 01:17:21;;;;;;;28.40;25.73;;;15.30;99.90;;;;;;4979429;28;20451;-78
2022/09/11 01:20:16;;;;;;;28.27;25.77;;;15.30;99.90;;;;;;4979018;28;20444;-78
2022/09/11 01:23:07;;;;;;;31.37;28.57;;;15.30;99.90;;;;;;4976767;28;20452;-78
2022/09/11 01:26:01;;;;;;;30.23;27.60;;;15.30;99.90;;;;;;4979400;28;20801;-77
2022/09/11 01:28:36;;;;;;;29.80;27.20;;;15.30;99.90;;;;;;4978434;28;20996;-78
2022/09/11 01:31:08;;;;;;;28.60;26.20;;;15.20;99.90;;;;;;4979918;28;20471;-78
2022/09/11 01:33:44;;;;;;;27.83;25.43;;;15.20;99.90;;;;;;4990615;28;20452;-78
2022/09/11 01:36:18;;;;;;;29.37;26.90;;;15.20;99.90;;;;;;4992915;28;20492;-78
2022/09/11 01:38:51;;;;;;;29.73;27.10;;;15.20;99.90;;;;;;4995934;28;20468;-78
2022/09/11 01:41:26;;;;;;;28.80;26.30;;;15.20;99.90;;;;;;4995113;28;20476;-78
2022/09/11 01:44:02;;;;;;;29.60;26.97;;;15.10;99.90;;;;;;4992784;28;20477;-78
2022/09/11 01:46:36;;;;;;;29.70;27.00;;;15.10;99.90;;;;;;4995115;28;20445;-78
2022/09/11 01:49:08;;;;;;;30.67;28.10;;;15.10;99.90;;;;;;4994182;28;20995;-78
2022/09/11 01:51:40;;;;;;;30.27;27.77;;;15.10;99.90;;;;;;4984973;28;20470;-78
2022/09/11 01:54:13;;;;;;;30.50;27.90;;;15.10;99.90;;;;;;4983145;28;20449;-78
2022/09/11 01:56:45;;;;;;;33.50;30.57;;;15.10;99.90;;;;;;4982709;28;20470;-78
2022/09/11 01:59:20;;;;;;;31.30;28.70;;;15.10;99.90;;;;;;4979712;28;20416;-78
2022/09/11 02:01:59;;;;;;;30.47;27.83;;;15.10;99.90;;;;;;4978879;28;20476;-78
2022/09/11 02:04:32;;;;;;;29.57;27.10;;;15.10;99.90;;;;;;4979471;28;20459;-78
2022/09/11 02:07:07;;;;;;;30.93;28.40;;;15.10;99.90;;;;;;4979540;28;20533;-78
2022/09/11 02:09:44;;;;;;;28.47;25.97;;;15.10;99.90;;;;;;4979136;28;20564;-78
2022/09/11 02:12:17;;;;;;;28.93;26.43;;;15.10;99.90;;;;;;4978022;28;20473;-78
2022/09/11 02:14:50;;;;;;;27.67;25.20;;;15.10;99.90;;;;;;4978532;28;20450;-78
2022/09/11 02:17:27;;;;;;;29.87;27.27;;;15.10;99.90;;;;;;4977643;28;20449;-78
2022/09/11 02:19:57;;;;;;;28.53;26.10;;;15.10;99.90;;;;;;4977690;28;20456;-79
2022/09/11 02:22:25;;;;;;;29.20;26.60;;;15.10;99.90;;;;;;4975967;28;20454;-79
2022/09/11 02:24:54;;;;;;;27.00;24.70;;;15.00;99.90;;;;;;4977021;28;20447;-78
2022/09/11 02:27:26;;;;;;;29.00;26.27;;;15.00;99.90;;;;;;4975277;28;20437;-79
2022/09/11 02:29:58;;;;;;;29.27;26.87;;;15.00;99.90;;;;;;4962477;28;20479;-78
2022/09/11 02:32:32;;;;;;;28.73;26.33;;;15.00;99.90;;;;;;4967347;28;20520;-78
2022/09/11 02:35:00;;;;;;;30.00;27.20;;;15.00;99.90;;;;;;4971098;28;20453;-78
2022/09/11 02:37:44;;;;;;;30.70;28.00;;;15.00;99.90;;;;;;4960167;28;20561;-78
2022/09/11 02:40:44;;;;;;;30.10;27.50;;;15.00;99.90;;;;;;4969602;28;20457;-78
2022/09/11 02:43:38;;;;;;;31.77;28.97;;;15.00;99.90;;;;;;4959016;28;20464;-78
2022/09/11 02:46:22;;;;;;;29.17;26.70;;;15.00;99.90;;;;;;4958321;29;20968;-78
2022/09/11 02:49:01;;;;;;;33.10;30.10;;;15.00;99.90;;;;;;4976816;28;20461;-78
2022/09/11 02:51:34;;;;;;;34.00;31.00;;;15.00;99.90;;;;;;4976513;28;20499;-78
2022/09/11 02:54:12;;;;;;;32.73;29.83;;;15.00;99.90;;;;;;4976253;28;20540;-78
2022/09/11 02:56:45;;;;;;;32.37;29.43;;;15.00;99.90;;;;;;4975582;28;20457;-78
2022/09/11 02:59:18;;;;;;;30.50;27.80;;;15.00;99.90;;;;;;4975749;28;20500;-78
2022/09/11 03:01:57;;;;;;;30.83;27.97;;;15.00;99.90;;;;;;4976360;28;20476;-78
2022/09/11 03:04:26;;;;;;;31.50;28.70;;;15.00;99.90;;;;;;4936407;29;20895;-78
2022/09/11 03:06:57;;;;;;;32.83;29.83;;;15.00;99.90;;;;;;4937448;29;20455;-77
2022/09/11 03:09:26;;;;;;;34.60;31.50;;;15.00;99.90;;;;;;4937845;29;20496;-77
2022/09/11 03:11:59;;;;;;;32.93;30.03;;;15.00;99.90;;;;;;4937249;29;20515;-78
2022/09/11 03:14:28;;;;;;;34.40;31.30;;;15.00;99.90;;;;;;4937108;29;20517;-78
2022/09/11 03:16:57;;;;;;;33.97;30.87;;;15.00;99.90;;;;;;4936705;29;20451;-78
2022/09/11 03:19:25;;;;;;;34.13;31.13;;;14.90;99.90;;;;;;4936808;29;20477;-78
2022/09/11 03:21:55;;;;;;;37.83;34.33;;;15.00;99.90;;;;;;4941770;29;20450;-78
2022/09/11 03:24:23;;;;;;;37.93;34.30;;;15.00;99.90;;;;;;4938512;29;20467;-78
2022/09/11 03:26:51;;;;;;;35.17;32.10;;;15.00;99.90;;;;;;4938251;29;20483;-78
2022/09/11 03:29:19;;;;;;;34.43;31.17;;;15.00;99.90;;;;;;4938005;29;20458;-78
2022/09/11 03:31:47;;;;;;;34.50;31.40;;;15.00;99.90;;;;;;4937525;29;20505;-78
2022/09/11 03:34:18;;;;;;;34.73;31.50;;;15.00;99.90;;;;;;4938766;29;20446;-78
2022/09/11 03:36:47;;;;;;;34.93;31.77;;;15.00;99.90;;;;;;4938333;29;20417;-78
2022/09/11 03:39:16;;;;;;;35.53;32.53;;;15.00;99.90;;;;;;4938044;29;20452;-78
2022/09/11 03:41:44;;;;;;;34.90;31.70;;;15.00;99.90;;;;;;4937267;29;20471;-78
2022/09/11 03:44:12;;;;;;;35.03;31.67;;;14.90;99.90;;;;;;4937337;29;20451;-78
2022/09/11 03:46:41;;;;;;;35.27;32.17;;;14.90;99.90;;;;;;4937035;29;20472;-79
2022/09/11 03:49:09;;;;;;;34.40;31.47;;;15.00;99.90;;;;;;4936465;29;20843;-78
2022/09/11 03:51:38;;;;;;;35.00;31.80;;;15.00;99.90;;;;;;4936857;29;20570;-78
2022/09/11 03:54:07;;;;;;;33.80;30.80;;;15.00;99.90;;;;;;4937208;29;20475;-79
2022/09/11 03:56:36;;;;;;;35.43;32.33;;;15.00;99.90;;;;;;4937055;29;20444;-78
2022/09/11 03:59:04;;;;;;;35.63;32.40;;;15.00;99.90;;;;;;4936851;29;20481;-78
2022/09/11 04:01:34;;;;;;;36.53;33.30;;;15.00;99.90;;;;;;4936495;29;20467;-78
2022/09/11 04:04:03;;;;;;;34.73;31.63;;;15.00;99.90;;;;;;4936920;29;20507;-78
2022/09/11 04:06:36;;;;;;;35.80;32.70;;;15.00;99.90;;;;;;4936809;29;20444;-79
2022/09/11 04:09:07;;;;;;;37.43;34.27;;;15.00;99.90;;;;;;4936679;29;20466;-78
2022/09/11 04:11:37;;;;;;;36.07;32.67;;;15.00;99.90;;;;;;4936526;29;20523;-78
2022/09/11 04:14:11;;;;;;;34.00;30.97;;;15.10;99.90;;;;;;4936424;29;20475;-78
2022/09/11 04:16:41;;;;;;;34.23;31.23;;;15.10;99.90;;;;;;4936258;29;20451;-78
2022/09/11 04:19:11;;;;;;;35.27;32.27;;;15.10;99.90;;;;;;4936441;29;20831;-78
2022/09/11 04:21:41;;;;;;;36.50;33.10;;;15.10;99.90;;;;;;4936512;29;20481;-78
2022/09/11 04:24:11;;;;;;;36.53;33.27;;;15.10;99.90;;;;;;4936400;29;20517;-78
2022/09/11 04:26:39;;;;;;;35.13;31.93;;;15.10;99.90;;;;;;4936319;29;20821;-78
2022/09/11 04:29:20;;;;;;;37.80;34.20;;;15.10;99.90;;;;;;4936429;29;20459;-78
2022/09/11 04:31:48;;;;;;;37.10;33.63;;;15.10;99.90;;;;;;4936012;29;20450;-78
2022/09/11 04:34:17;;;;;;;36.80;33.50;;;15.10;99.90;;;;;;4936199;29;20472;-78
2022/09/11 04:36:46;;;;;;;38.30;34.73;;;15.10;99.90;;;;;;4936133;29;21037;-78
2022/09/11 04:39:20;;;;;;;38.00;34.40;;;15.10;99.90;;;;;;4935842;29;20454;-78
2022/09/11 04:41:49;;;;;;;40.67;36.97;;;15.10;99.90;;;;;;4935915;29;20841;-79
2022/09/11 04:44:19;;;;;;;39.00;35.30;;;15.10;99.90;;;;;;4935890;29;20539;-78
2022/09/11 04:46:47;;;;;;;38.87;35.07;;;15.10;99.90;;;;;;4936031;29;20469;-78
2022/09/11 04:49:17;;;;;;;42.33;38.23;;;15.10;99.90;;;;;;4936113;29;20518;-78
2022/09/11 04:51:46;;;;;;;42.27;38.17;;;15.10;99.90;;;;;;4936070;29;20552;-78
2022/09/11 04:54:19;;;;;;;45.03;40.73;;;15.10;99.90;;;;;;4936428;29;20502;-79
2022/09/11 04:56:49;;;;;;;45.20;40.40;;;15.10;99.90;;;;;;4936167;29;20790;-78
2022/09/11 04:59:21;;;;;;;43.27;38.67;;;15.10;99.90;;;;;;4936248;29;20459;-78
2022/09/11 05:01:58;;;;;;;45.60;40.90;;;15.10;99.90;;;;;;4936013;29;20562;-78
2022/09/11 05:04:28;;;;;;;45.23;40.47;;;15.10;99.90;;;;;;4936478;29;20443;-78
2022/09/11 05:06:56;;;;;;;45.60;40.87;;;15.10;99.90;;;;;;4936290;29;20447;-79
2022/09/11 05:09:26;;;;;;;43.87;38.57;;;15.10;99.90;;;;;;4935825;29;20452;-78
2022/09/11 05:11:56;;;;;;;46.70;41.83;;;15.10;99.90;;;;;;4936024;29;20505;-78
2022/09/11 05:14:31;;;;;;;48.33;40.53;;;15.10;99.90;;;;;;4936556;29;20483;-78
2022/09/11 05:17:01;;;;;;;46.13;41.27;;;15.10;99.90;;;;;;4937230;29;20414;-79
2022/09/11 05:19:31;;;;;;;48.13;43.03;;;15.10;99.90;;;;;;4937399;29;20479;-79
2022/09/11 05:22:00;;;;;;;47.37;42.30;;;15.10;99.90;;;;;;4936717;29;20479;-78
2022/09/11 05:24:29;;;;;;;51.63;42.07;;;15.10;99.90;;;;;;4935909;29;20554;-79
2022/09/11 05:27:00;;;;;;;52.30;42.40;;;15.10;99.90;;;;;;4936339;29;20897;-79
2022/09/11 05:29:28;;;;;;;48.47;43.37;;;15.10;99.90;;;;;;4939906;29;20517;-79
2022/09/11 05:32:08;;;;;;;47.40;42.30;;;15.10;99.90;;;;;;4939546;29;20454;-79
2022/09/11 05:34:36;;;;;;;50.77;42.90;;;15.10;99.90;;;;;;4939188;29;21117;-79
2022/09/11 05:37:06;;;;;;;51.27;44.37;;;15.10;99.90;;;;;;4939323;29;20483;-79
2022/09/11 05:39:41;;;;;;;51.13;43.20;;;15.10;99.90;;;;;;4939212;29;20446;-78
2022/09/11 05:42:13;;;;;;;53.10;43.70;;;15.10;99.90;;;;;;4939468;29;20849;-78
2022/09/11 05:44:46;;;;;;;56.27;42.80;;;15.10;99.90;;;;;;4940157;29;20440;-78
2022/09/11 05:47:15;;;;;;;53.00;42.00;;;15.10;99.90;;;;;;4939722;29;20530;-79
2022/09/11 05:49:46;;;;;;;52.87;43.20;;;15.10;99.90;;;;;;4939165;29;20480;-79
2022/09/11 05:52:15;;;;;;;50.33;42.17;;;15.10;99.90;;;;;;4939127;29;20475;-79
2022/09/11 05:54:43;;;;;;;50.60;43.57;;;15.10;99.90;;;;;;4939061;29;20482;-78
2022/09/11 05:57:14;;;;;;;55.83;43.50;;;15.10;99.90;;;;;;4939836;29;20440;-79
2022/09/11 05:59:43;;;;;;;49.93;41.23;;;15.10;99.90;;;;;;4942782;29;20451;-79
2022/09/11 06:02:13;;;;;;;52.23;42.30;;;15.10;99.90;;;;;;4941896;29;20518;-79
2022/09/11 06:04:49;;;;;;;46.67;41.57;;;15.10;99.90;;;;;;4939602;29;20473;-79
2022/09/11 06:07:19;;;;;;;51.10;41.67;;;15.20;99.90;;;;;;4940528;29;20430;-78
2022/09/11 06:09:49;;;;;;;44.90;40.13;;;15.20;99.90;;;;;;4940560;29;20491;-78
2022/09/11 06:12:19;;;;;;;51.33;41.37;;;15.20;99.90;;;;;;4940261;29;20506;-79
2022/09/11 06:14:48;;;;;;;47.57;39.07;;;15.20;99.90;;;;;;4940436;29;20442;-78
2022/09/11 06:17:17;;;;;;;44.00;39.30;;;15.20;99.90;;;;;;4941733;29;20439;-78
2022/09/11 06:19:46;;;;;;;47.40;39.93;;;15.20;99.90;;;;;;4940051;29;20434;-78
2022/09/11 06:22:15;;;;;;;46.33;40.10;;;15.20;99.90;;;;;;4939311;29;20893;-78
2022/09/11 06:24:46;;;;;;;45.70;40.43;;;15.30;99.90;;;;;;4939341;29;20451;-78
2022/09/11 06:27:16;;;;;;;43.50;38.80;;;15.30;99.90;;;;;;4940014;29;20448;-78
2022/09/11 06:29:49;;;;;;;46.60;41.50;;;15.30;99.90;;;;;;4940515;29;20448;-78
2022/09/11 06:32:20;;;;;;;43.27;38.60;;;15.40;99.90;;;;;;4940494;29;20957;-78
2022/09/11 06:34:48;;;;;;;43.57;38.87;;;15.40;99.90;;;;;;4945463;29;20471;-78
2022/09/11 06:37:16;;;;;;;40.90;36.50;;;15.40;99.90;;;;;;4947789;29;20454;-78
2022/09/11 06:39:44;;;;;;;44.10;36.90;;;15.40;99.90;;;;;;4954948;29;20444;-78
2022/09/11 06:42:22;;;;;;;44.33;39.10;;;15.40;99.90;;;;;;4960253;29;20459;-78
2022/09/11 06:44:52;;;;;;;42.63;37.93;;;15.40;99.90;;;;;;4959070;29;20410;-78
2022/09/11 06:47:20;;;;;;;43.30;38.40;;;15.40;99.90;;;;;;4956813;29;20424;-78
2022/09/11 06:49:49;;;;;;;40.70;36.30;;;15.40;99.90;;;;;;4956974;29;20471;-78
2022/09/11 06:52:37;;;;;;;43.47;38.70;;;15.40;99.90;;;;;;4953939;29;20760;-78
2022/09/11 06:55:17;;;;;;;38.80;34.80;;;15.50;99.90;;;;;;4944395;29;20471;-78
2022/09/11 06:57:53;;;;;;;40.33;36.10;;;15.50;99.90;;;;;;4943512;29;20546;-78
2022/09/11 07:00:27;;;;;;;38.47;34.33;;;15.50;99.90;;;;;;4940043;29;20826;-78
2022/09/11 07:02:55;;;;;;;42.67;37.10;;;15.50;99.90;;;;;;4939738;29;20430;-79
2022/09/11 07:05:26;;;;;;;38.00;33.90;;;15.50;99.90;;;;;;4940866;29;20790;-80
2022/09/11 07:07:55;;;;;;;38.23;34.20;;;15.50;99.90;;;;;;4939129;29;20487;-78
2022/09/11 07:10:28;;;;;;;36.77;32.77;;;15.50;99.90;;;;;;4939255;29;20495;-78
2022/09/11 07:12:59;;;;;;;38.17;32.17;;;15.60;99.90;;;;;;4941962;29;20855;-78
2022/09/11 07:15:30;;;;;;;36.87;33.07;;;15.60;99.90;;;;;;4939186;28;20468;-79
2022/09/11 07:18:00;;;;;;;38.33;33.13;;;15.60;99.90;;;;;;4939179;29;20596;-79
2022/09/11 07:20:28;;;;;;;40.23;35.97;;;15.60;99.90;;;;;;4938284;29;20457;-78
2022/09/11 07:22:57;;;;;;;38.60;34.50;;;15.60;99.90;;;;;;4938568;29;20455;-78
2022/09/11 07:25:26;;;;;;;47.47;35.10;;;15.60;99.90;;;;;;4939427;29;20486;-80
2022/09/11 07:27:55;;;;;;;39.97;34.70;;;15.70;99.90;;;;;;4937907;29;20452;-78
2022/09/11 07:30:23;;;;;;;38.50;33.90;;;15.70;99.90;;;;;;4938373;29;20880;-78
2022/09/11 07:32:56;;;;;;;42.87;34.90;;;15.70;99.90;;;;;;4938115;29;20422;-78
2022/09/11 07:35:24;;;;;;;39.70;34.10;;;15.80;99.90;;;;;;4938087;29;21002;-78
2022/09/11 07:37:53;;;;;;;37.63;33.57;;;15.80;99.90;;;;;;4939281;29;20454;-78
2022/09/11 07:40:25;;;;;;;40.00;33.50;;;15.80;99.90;;;;;;4938746;29;20483;-78
2022/09/11 07:42:54;;;;;;;37.33;32.30;;;15.90;99.90;;;;;;4937277;29;20490;-78
2022/09/11 07:45:23;;;;;;;38.20;34.00;;;15.90;99.90;;;;;;4938266;29;20455;-79
2022/09/11 07:47:52;;;;;;;43.13;33.80;;;15.90;99.90;;;;;;4938047;29;20992;-78
2022/09/11 07:50:24;;;;;;;36.23;32.30;;;16.00;99.90;;;;;;4937236;29;20482;-79
2022/09/11 07:52:52;;;;;;;37.93;33.20;;;16.00;99.90;;;;;;4937615;29;20426;-78
2022/09/11 07:55:21;;;;;;;38.80;34.70;;;16.00;99.90;;;;;;4937154;28;20454;-78
2022/09/11 07:57:52;;;;;;;35.33;31.53;;;16.10;99.90;;;;;;4937224;29;20861;-78
2022/09/11 08:00:23;;;;;;;33.13;29.40;;;16.10;99.90;;;;;;4937394;29;20836;-78
2022/09/11 08:03:01;;;;;;;29.77;26.47;;;16.10;99.90;;;;;;4937190;29;20970;-78
2022/09/11 08:05:35;;;;;;;29.30;26.10;;;16.10;99.90;;;;;;4938100;29;20452;-78
2022/09/11 08:08:03;;;;;;;29.07;25.37;;;16.10;99.90;;;;;;4937782;29;20462;-79
2022/09/11 08:10:37;;;;;;;26.87;23.63;;;16.10;99.90;;;;;;4937471;29;20449;-79
2022/09/11 08:13:05;;;;;;;28.13;23.30;;;16.10;99.90;;;;;;4937585;29;20445;-78
2022/09/11 08:15:37;;;;;;;30.20;25.20;;;16.10;99.90;;;;;;4937489;29;20461;-80
2022/09/11 08:18:07;;;;;;;27.97;24.30;;;16.20;99.90;;;;;;4937305;29;20432;-79
2022/09/11 08:20:37;;;;;;;28.13;24.73;;;16.20;99.90;;;;;;4937009;29;20476;-79
2022/09/11 08:23:05;;;;;;;26.50;23.70;;;16.20;99.90;;;;;;4937024;29;20455;-79
2022/09/11 08:25:35;;;;;;;29.03;23.80;;;16.30;99.90;;;;;;4937165;29;20454;-79
2022/09/11 08:28:04;;;;;;;27.53;24.17;;;16.30;99.90;;;;;;4936605;29;20473;-78
2022/09/11 08:30:33;;;;;;;26.87;23.97;;;16.30;99.90;;;;;;4936753;29;20500;-79
2022/09/11 08:33:01;;;;;;;29.10;25.20;;;16.30;99.90;;;;;;4936466;29;20422;-78
2022/09/11 08:35:29;;;;;;;28.53;25.50;;;16.40;99.90;;;;;;4935826;29;20816;-78
2022/09/11 08:37:59;;;;;;;28.27;25.27;;;16.40;99.90;;;;;;4936578;29;20424;-78
2022/09/11 08:40:28;;;;;;;26.60;22.77;;;16.50;99.90;;;;;;4936366;29;20458;-78
2022/09/11 08:43:02;;;;;;;33.10;28.70;;;16.50;99.90;;;;;;4936388;29;20448;-78
2022/09/11 08:45:34;;;;;;;30.73;27.47;;;16.60;99.90;;;;;;4936565;29;20434;-78
2022/09/11 08:48:08;;;;;;;29.60;26.60;;;16.80;99.90;;;;;;4937137;29;20476;-78
2022/09/11 08:50:40;;;;;;;28.17;25.43;;;16.90;99.90;;;;;;4937900;29;20458;-79
2022/09/11 08:53:15;;;;;;;27.50;24.70;;;17.00;99.90;;;;;;4936627;29;20418;-78
2022/09/11 08:55:47;;;;;;;24.60;22.10;;;17.10;99.90;;;;;;4935464;29;21032;-78
2022/09/11 08:58:26;;;;;;;22.47;20.17;;;17.30;99.90;;;;;;4935968;29;20417;-78
2022/09/11 09:01:03;;;;;;;25.17;22.70;;;17.30;99.90;;;;;;4936567;29;20824;-78
2022/09/11 09:03:55;;;;;;;22.00;19.83;;;17.40;99.90;;;;;;4937914;29;20414;-78
2022/09/11 09:06:53;;;;;;;19.33;17.40;;;17.50;99.90;;;;;;4939073;29;20966;-78
2022/09/11 09:09:31;;;;;;;19.10;17.40;;;17.60;99.90;;;;;;4938927;29;20507;-78
2022/09/11 09:12:14;;;;;;;16.60;15.00;;;17.70;99.90;;;;;;4939577;29;20887;-78
2022/09/11 09:15:05;;;;;;;19.43;17.73;;;17.80;99.90;;;;;;4938840;29;20425;-78
2022/09/11 09:17:38;;;;;;;19.97;18.10;;;17.90;99.90;;;;;;4929001;29;20493;-78
2022/09/11 09:20:13;;;;;;;19.63;17.83;;;18.00;99.90;;;;;;4938829;29;20457;-77
2022/09/11 09:22:48;;;;;;;16.20;14.70;;;18.10;99.90;;;;;;4939278;28;20462;-78
2022/09/11 09:25:22;;;;;;;16.20;14.60;;;18.20;99.90;;;;;;4939200;29;20572;-78
2022/09/11 09:27:59;;;;;;;14.60;13.20;;;18.20;99.90;;;;;;4938915;29;20989;-78
2022/09/11 09:30:34;;;;;;;13.73;12.63;;;18.30;99.90;;;;;;4938862;29;20826;-78
2022/09/11 09:33:15;;;;;;;13.50;12.27;;;18.40;99.90;;;;;;4938054;29;20454;-77
2022/09/11 09:35:46;;;;;;;12.70;11.60;;;18.50;99.90;;;;;;4937777;29;20514;-77
2022/09/11 09:38:21;;;;;;;13.90;12.80;;;18.60;99.90;;;;;;4937973;29;20459;-78
2022/09/11 09:41:10;;;;;;;12.83;11.73;;;18.70;99.90;;;;;;4937908;29;20453;-77
2022/09/11 09:43:50;;;;;;;13.40;12.40;;;18.80;99.90;;;;;;4937881;29;20479;-77
2022/09/11 09:46:27;;;;;;;13.30;12.20;;;18.90;99.90;;;;;;4939592;29;20459;-77
2022/09/11 09:48:55;;;;;;;12.97;11.87;;;18.90;99.90;;;;;;4938098;29;20466;-77
2022/09/11 09:51:23;;;;;;;14.07;12.93;;;19.00;99.90;;;;;;4940414;29;20999;-77
2022/09/11 09:53:55;;;;;;;13.17;12.07;;;19.10;99.90;;;;;;4938173;29;20541;-77
2022/09/11 09:56:26;;;;;;;13.00;12.00;;;19.30;99.90;;;;;;4937952;29;20820;-77
2022/09/11 09:58:59;;;;;;;11.77;10.67;;;19.40;99.90;;;;;;4937567;29;20456;-77
2022/09/11 10:01:48;;;;;;;9.83;8.93;;;19.50;99.90;;;;;;4937351;29;20530;-77
2022/09/11 10:04:20;;;;;;;11.50;10.43;;;19.50;99.90;;;;;;4938793;29;20978;-77
2022/09/11 10:06:51;;;;;;;11.67;10.77;;;19.50;99.90;;;;;;4937325;29;20474;-77
2022/09/11 10:09:25;;;;;;;11.17;10.27;;;19.50;99.90;;;;;;4938876;29;20463;-77
2022/09/11 10:12:01;;;;;;;11.80;10.80;;;19.40;99.90;;;;;;4937415;29;20486;-77
2022/09/11 10:14:32;;;;;;;10.43;9.60;;;19.40;99.90;;;;;;4938049;29;20430;-77
2022/09/11 10:17:23;;;;;;;11.13;10.30;;;19.40;99.90;;;;;;4937296;29;20471;-77
2022/09/11 10:19:54;;;;;;;9.23;8.33;;;19.50;99.90;;;;;;4937117;29;20824;-77
2022/09/11 10:22:29;;;;;;;10.10;9.23;;;19.50;99.90;;;;;;4937235;29;20807;-77
2022/09/11 10:25:02;;;;;;;9.60;8.83;;;19.70;99.90;;;;;;4939255;29;20435;-77
2022/09/11 10:27:35;;;;;;;8.70;8.00;;;19.70;99.90;;;;;;4937708;29;20439;-78
2022/09/11 10:30:04;;;;;;;9.30;8.60;;;19.80;99.90;;;;;;4937602;29;20443;-78
2022/09/11 10:32:39;;;;;;;9.00;8.30;;;19.90;99.90;;;;;;4937447;29;20838;-78
2022/09/11 10:35:09;;;;;;;8.17;7.50;;;20.00;99.90;;;;;;4937472;29;20506;-77
2022/09/11 10:37:38;;;;;;;7.53;6.90;;;20.10;99.90;;;;;;4938020;29;20466;-78
2022/09/11 10:40:17;;;;;;;7.60;7.00;;;20.10;99.90;;;;;;4936856;29;20458;-77
2022/09/11 10:42:47;;;;;;;13.40;8.40;;;20.10;99.90;;;;;;4938236;29;20423;-77
2022/09/11 10:45:17;;;;;;;7.03;6.53;;;20.10;99.90;;;;;;4937233;29;20432;-77
2022/09/11 10:47:45;;;;;;;8.37;7.67;;;20.10;99.90;;;;;;4936607;29;20463;-77
2022/09/11 10:50:22;;;;;;;8.63;7.70;;;20.00;99.90;;;;;;4936662;29;20450;-77
2022/09/11 10:53:07;;;;;;;8.80;7.93;;;20.00;99.90;;;;;;4936923;29;20475;-77
2022/09/11 10:55:40;;;;;;;8.90;8.10;;;20.00;99.90;;;;;;4936485;29;20444;-77
2022/09/11 10:58:16;;;;;;;8.80;8.03;;;20.10;99.90;;;;;;4937651;29;20459;-78
2022/09/11 11:00:44;;;;;;;8.10;7.50;;;20.10;99.90;;;;;;4938078;29;20798;-77
2022/09/11 11:03:16;;;;;;;8.30;7.60;;;20.20;99.90;;;;;;4937609;28;20462;-77
2022/09/11 11:05:56;;;;;;;8.03;7.33;;;20.30;99.90;;;;;;4936115;29;20458;-77
2022/09/11 11:08:57;;;;;;;8.67;7.87;;;20.40;99.90;;;;;;4939360;28;20439;-78
2022/09/11 11:11:39;;;;;;;8.90;8.10;;;20.40;99.90;;;;;;4927505;29;20933;-78
2022/09/11 11:14:42;;;;;;;9.93;9.10;;;20.50;99.90;;;;;;4936037;29;20459;-77
2022/09/11 11:17:19;;;;;;;9.13;8.47;;;20.40;99.90;;;;;;4937471;28;20474;-77
2022/09/11 11:20:04;;;;;;;11.30;10.40;;;20.40;99.90;;;;;;4936185;29;20435;-77
2022/09/11 11:23:01;;;;;;;10.67;9.77;;;20.30;99.90;;;;;;4935929;29;20451;-77
2022/09/11 11:25:35;;;;;;;9.23;8.53;;;20.30;99.90;;;;;;4936455;29;20443;-77
2022/09/11 11:28:23;;;;;;;7.83;7.23;;;20.30;99.90;;;;;;4936097;29;20502;-77
2022/09/11 11:31:04;;;;;;;9.23;8.53;;;20.40;99.90;;;;;;4937277;29;20466;-77
2022/09/11 11:34:08;;;;;;;7.47;6.80;;;20.40;99.90;;;;;;4935828;29;20507;-77
2022/09/11 11:36:43;;;;;;;4.10;3.80;;;20.50;99.90;;;;;;4935572;29;20506;-77
2022/09/11 11:39:20;;;;;;;6.30;5.20;;;20.50;99.90;;;;;;4937073;29;20431;-77
2022/09/11 11:42:02;;;;;;;3.87;3.53;;;20.60;99.90;;;;;;4936990;28;20479;-77
2022/09/11 11:44:36;;;;;;;6.33;5.83;;;20.70;99.90;;;;;;4936894;29;20423;-77
2022/09/11 11:47:10;;;;;;;5.73;5.10;;;20.70;99.90;;;;;;4935559;28;20454;-77
2022/09/11 11:49:51;;;;;;;7.00;6.30;;;20.70;99.90;;;;;;4935481;29;20459;-77
2022/09/11 11:52:32;;;;;;;5.60;5.20;;;20.80;99.90;;;;;;4936526;29;20982;-77
2022/09/11 11:55:07;;;;;;;5.03;4.63;;;20.70;99.90;;;;;;4936991;29;20858;-77
2022/09/11 11:57:40;;;;;;;5.27;4.80;;;20.70;99.90;;;;;;4935227;29;20470;-77
2022/09/11 12:00:14;;;;;;;3.27;2.97;;;20.70;99.90;;;;;;4935136;28;20442;-77
2022/09/11 12:02:49;;;;;;;3.20;2.90;;;20.60;99.90;;;;;;4935377;29;20450;-78
2022/09/11 12:05:23;;;;;;;3.90;3.33;;;20.60;99.90;;;;;;4935431;29;20439;-77
2022/09/11 12:07:52;;;;;;;3.73;3.43;;;20.70;99.90;;;;;;4936992;29;20915;-78
2022/09/11 12:10:26;;;;;;;4.10;3.80;;;20.70;99.90;;;;;;4936535;29;20464;-77
2022/09/11 12:12:58;;;;;;;4.17;3.80;;;20.80;99.90;;;;;;4935077;29;20443;-77
2022/09/11 12:15:30;;;;;;;4.00;3.70;;;20.90;99.90;;;;;;4936204;29;20423;-77
2022/09/11 12:18:02;;;;;;;3.40;2.50;;;20.90;99.90;;;;;;4934993;29;20526;-77
2022/09/11 12:20:38;;;;;;;2.30;2.03;;;21.00;99.90;;;;;;4935019;29;20467;-77
2022/09/11 12:23:24;;;;;;;3.17;1.90;;;21.00;99.90;;;;;;4936386;29;20935;-77
2022/09/11 12:26:17;;;;;;;2.27;1.90;;;21.10;99.90;;;;;;4934246;29;20456;-77
2022/09/11 12:28:46;;;;;;;2.80;2.47;;;21.10;99.90;;;;;;4927822;29;20531;-77
2022/09/11 12:31:15;;;;;;;3.00;2.70;;;21.20;99.90;;;;;;4936376;29;20842;-77
2022/09/11 12:33:53;;;;;;;2.83;2.33;;;21.20;99.90;;;;;;4936372;29;20451;-76
2022/09/11 12:36:47;;;;;;;3.10;2.67;;;21.30;99.90;;;;;;4936756;29;20483;-76
2022/09/11 12:39:24;;;;;;;2.70;2.10;;;21.30;99.90;;;;;;4940317;29;20464;-77
2022/09/11 12:41:53;;;;;;;2.83;2.53;;;21.40;99.90;;;;;;4938675;29;20471;-77
2022/09/11 12:44:30;;;;;;;2.70;2.30;;;21.40;99.90;;;;;;4938642;29;20447;-77
2022/09/11 12:47:16;;;;;;;2.33;1.50;;;21.50;99.90;;;;;;4940857;28;20442;-79
2022/09/11 12:49:55;;;;;;;2.20;1.97;;;21.50;99.90;;;;;;4940102;29;20815;-78
2022/09/11 12:52:36;;;;;;;2.50;1.83;;;21.60;99.90;;;;;;4941985;29;20467;-78
2022/09/11 12:55:22;;;;;;;2.10;1.77;;;21.70;99.90;;;;;;4941843;28;20471;-78
2022/09/11 12:57:51;;;;;;;2.47;1.80;;;21.80;99.90;;;;;;4939748;28;20467;-78
2022/09/11 13:00:23;;;;;;;1.70;1.30;;;21.80;99.90;;;;;;4940307;29;20470;-79
2022/09/11 13:02:55;;;;;;;2.77;1.90;;;21.90;99.90;;;;;;4941922;29;20849;-79